Mount Rainier, Maryland
Current Conditions -  °F | °C
As of 8:05 AM on Wednesday 26 Nov 2014 (Local Time) from KCGS Reporting Station
Overcast Overcast  
Wind Chill: 36°   Ceiling: 1400
Heat Index: 41°   Visibility: 5mi
Dew Point: 39°   Wind: 7mph
Humidity: 93%   Direction: 50°NE
Pressure: 30.06"   Gusts: NA
Location:  38.94°N, 76.96°W
Report Text: KCGS 261305Z AUTO 05006KT 5SM BKN014 OVC020 05/04 A3006 RMK AO1
Loading
Personal Weather Stations






























Interactive Weather Map New forecast layout! Learn more

10-Day Weather Forecast

Advertisements
Track Severe Weather on mobile